sensor_id;sensor_type;location;lat;lon;timestamp;P1;durP1;ratioP1;P2;durP2;ratioP2
60038;SDS011;45916;52.734;6.544;2022-12-29T00:02:04;8.20;;;7.38;;
60038;SDS011;45916;52.734;6.544;2022-12-29T00:04:30;10.80;;;8.20;;
60038;SDS011;45916;52.734;6.544;2022-12-29T00:06:55;8.98;;;8.07;;
60038;SDS011;45916;52.734;6.544;2022-12-29T00:09:21;9.38;;;7.55;;
60038;SDS011;45916;52.734;6.544;2022-12-29T00:11:47;8.45;;;7.50;;
60038;SDS011;45916;52.734;6.544;2022-12-29T00:14:15;8.55;;;7.47;;
60038;SDS011;45916;52.734;6.544;2022-12-29T00:16:59;9.00;;;7.40;;
60038;SDS011;45916;52.734;6.544;2022-12-29T00:19:26;9.70;;;7.78;;
60038;SDS011;45916;52.734;6.544;2022-12-29T00:22:11;9.48;;;7.70;;
60038;SDS011;45916;52.734;6.544;2022-12-29T00:24:56;8.15;;;7.10;;
60038;SDS011;45916;52.734;6.544;2022-12-29T00:27:34;10.43;;;7.35;;
60038;SDS011;45916;52.734;6.544;2022-12-29T00:30:20;8.88;;;7.72;;
60038;SDS011;45916;52.734;6.544;2022-12-29T00:33:13;8.95;;;7.68;;
60038;SDS011;45916;52.734;6.544;2022-12-29T00:36:00;9.60;;;7.68;;
60038;SDS011;45916;52.734;6.544;2022-12-29T00:38:33;9.27;;;8.23;;
60038;SDS011;45916;52.734;6.544;2022-12-29T00:41:21;9.32;;;7.88;;
60038;SDS011;45916;52.734;6.544;2022-12-29T00:44:05;9.07;;;8.05;;
60038;SDS011;45916;52.734;6.544;2022-12-29T00:46:37;9.23;;;8.15;;
60038;SDS011;45916;52.734;6.544;2022-12-29T00:49:07;8.80;;;7.75;;
60038;SDS011;45916;52.734;6.544;2022-12-29T00:51:53;9.40;;;8.15;;
60038;SDS011;45916;52.734;6.544;2022-12-29T00:54:20;8.73;;;7.65;;
60038;SDS011;45916;52.734;6.544;2022-12-29T00:56:46;8.85;;;6.65;;
60038;SDS011;45916;52.734;6.544;2022-12-29T00:59:13;9.45;;;6.95;;
60038;SDS011;45916;52.734;6.544;2022-12-29T01:01:39;8.93;;;7.30;;
60038;SDS011;45916;52.734;6.544;2022-12-29T01:04:05;9.05;;;7.00;;
60038;SDS011;45916;52.734;6.544;2022-12-29T01:06:32;8.60;;;6.82;;
60038;SDS011;45916;52.734;6.544;2022-12-29T01:08:58;7.63;;;6.07;;
60038;SDS011;45916;52.734;6.544;2022-12-29T01:11:43;8.55;;;6.72;;
60038;SDS011;45916;52.734;6.544;2022-12-29T01:14:08;6.88;;;4.50;;
60038;SDS011;45916;52.734;6.544;2022-12-29T01:16:34;7.15;;;5.03;;
60038;SDS011;45916;52.734;6.544;2022-12-29T01:19:01;6.88;;;5.95;;
60038;SDS011;45916;52.734;6.544;2022-12-29T01:21:27;8.20;;;5.78;;
60038;SDS011;45916;52.734;6.544;2022-12-29T01:23:53;8.15;;;6.00;;
60038;SDS011;45916;52.734;6.544;2022-12-29T01:26:19;8.98;;;6.30;;
60038;SDS011;45916;52.734;6.544;2022-12-29T01:28:44;7.85;;;5.90;;
60038;SDS011;45916;52.734;6.544;2022-12-29T01:31:11;6.63;;;5.18;;
60038;SDS011;45916;52.734;6.544;2022-12-29T01:33:38;7.43;;;5.93;;
60038;SDS011;45916;52.734;6.544;2022-12-29T01:36:05;7.15;;;5.35;;
60038;SDS011;45916;52.734;6.544;2022-12-29T01:38:34;8.15;;;5.28;;
60038;SDS011;45916;52.734;6.544;2022-12-29T01:41:00;7.47;;;5.68;;
60038;SDS011;45916;52.734;6.544;2022-12-29T01:43:42;7.95;;;4.80;;
60038;SDS011;45916;52.734;6.544;2022-12-29T01:46:57;7.32;;;4.70;;
60038;SDS011;45916;52.734;6.544;2022-12-29T01:49:17;7.40;;;6.00;;
60038;SDS011;45916;52.734;6.544;2022-12-29T01:51:59;6.88;;;5.25;;
60038;SDS011;45916;52.734;6.544;2022-12-29T01:54:30;8.55;;;5.15;;
60038;SDS011;45916;52.734;6.544;2022-12-29T01:56:59;7.93;;;5.68;;
60038;SDS011;45916;52.734;6.544;2022-12-29T01:59:30;7.18;;;5.05;;
60038;SDS011;45916;52.734;6.544;2022-12-29T02:01:59;6.53;;;4.32;;
60038;SDS011;45916;52.734;6.544;2022-12-29T02:04:26;8.93;;;5.60;;
60038;SDS011;45916;52.734;6.544;2022-12-29T02:06:55;8.13;;;5.22;;
60038;SDS011;45916;52.734;6.544;2022-12-29T02:09:26;8.02;;;5.10;;
60038;SDS011;45916;52.734;6.544;2022-12-29T02:11:51;5.95;;;4.05;;
60038;SDS011;45916;52.734;6.544;2022-12-29T02:14:18;6.85;;;4.47;;
60038;SDS011;45916;52.734;6.544;2022-12-29T02:22:18;6.07;;;4.35;;
60038;SDS011;45916;52.734;6.544;2022-12-29T02:30:51;7.38;;;4.88;;
60038;SDS011;45916;52.734;6.544;2022-12-29T02:33:34;7.07;;;4.25;;
60038;SDS011;45916;52.734;6.544;2022-12-29T02:36:15;7.07;;;4.18;;
60038;SDS011;45916;52.734;6.544;2022-12-29T02:52:32;6.80;;;4.68;;
60038;SDS011;45916;52.734;6.544;2022-12-29T02:55:02;6.97;;;5.05;;
60038;SDS011;45916;52.734;6.544;2022-12-29T02:57:32;8.40;;;5.05;;
60038;SDS011;45916;52.734;6.544;2022-12-29T03:00:07;6.32;;;4.53;;
60038;SDS011;45916;52.734;6.544;2022-12-29T03:05:41;6.20;;;3.95;;
60038;SDS011;45916;52.734;6.544;2022-12-29T03:11:20;4.45;;;2.83;;
60038;SDS011;45916;52.734;6.544;2022-12-29T03:17:11;6.82;;;4.00;;
60038;SDS011;45916;52.734;6.544;2022-12-29T03:22:27;6.10;;;3.92;;
60038;SDS011;45916;52.734;6.544;2022-12-29T03:24:57;5.28;;;3.60;;
60038;SDS011;45916;52.734;6.544;2022-12-29T03:27:44;6.43;;;4.18;;
60038;SDS011;45916;52.734;6.544;2022-12-29T03:30:14;6.35;;;4.03;;
60038;SDS011;45916;52.734;6.544;2022-12-29T03:32:42;9.13;;;4.57;;
60038;SDS011;45916;52.734;6.544;2022-12-29T03:35:17;6.82;;;4.38;;
60038;SDS011;45916;52.734;6.544;2022-12-29T03:37:52;6.22;;;4.22;;
60038;SDS011;45916;52.734;6.544;2022-12-29T03:40:24;6.72;;;4.10;;
60038;SDS011;45916;52.734;6.544;2022-12-29T03:42:52;5.78;;;3.60;;
60038;SDS011;45916;52.734;6.544;2022-12-29T03:45:19;5.65;;;3.85;;
60038;SDS011;45916;52.734;6.544;2022-12-29T03:47:45;8.50;;;3.08;;
60038;SDS011;45916;52.734;6.544;2022-12-29T03:50:11;5.70;;;2.35;;
60038;SDS011;45916;52.734;6.544;2022-12-29T03:52:38;5.68;;;3.50;;
60038;SDS011;45916;52.734;6.544;2022-12-29T03:55:04;6.75;;;3.72;;
60038;SDS011;45916;52.734;6.544;2022-12-29T03:57:30;5.13;;;3.03;;
60038;SDS011;45916;52.734;6.544;2022-12-29T03:59:56;6.97;;;3.78;;
60038;SDS011;45916;52.734;6.544;2022-12-29T04:02:21;7.13;;;2.63;;
60038;SDS011;45916;52.734;6.544;2022-12-29T04:04:48;6.47;;;3.10;;
60038;SDS011;45916;52.734;6.544;2022-12-29T04:07:14;6.32;;;3.10;;
60038;SDS011;45916;52.734;6.544;2022-12-29T04:09:40;7.65;;;2.63;;
60038;SDS011;45916;52.734;6.544;2022-12-29T04:12:06;8.48;;;2.50;;
60038;SDS011;45916;52.734;6.544;2022-12-29T04:14:31;5.60;;;2.35;;
60038;SDS011;45916;52.734;6.544;2022-12-29T04:16:57;5.60;;;2.05;;
60038;SDS011;45916;52.734;6.544;2022-12-29T04:19:23;4.55;;;1.90;;
60038;SDS011;45916;52.734;6.544;2022-12-29T04:21:48;7.22;;;2.15;;
60038;SDS011;45916;52.734;6.544;2022-12-29T04:24:14;5.75;;;2.13;;
60038;SDS011;45916;52.734;6.544;2022-12-29T04:26:40;5.38;;;2.22;;
60038;SDS011;45916;52.734;6.544;2022-12-29T04:29:06;6.65;;;2.17;;
60038;SDS011;45916;52.734;6.544;2022-12-29T04:31:32;3.88;;;1.75;;
60038;SDS011;45916;52.734;6.544;2022-12-29T04:33:58;5.63;;;1.63;;
60038;SDS011;45916;52.734;6.544;2022-12-29T04:36:25;6.75;;;1.98;;
60038;SDS011;45916;52.734;6.544;2022-12-29T04:38:50;7.38;;;1.92;;
60038;SDS011;45916;52.734;6.544;2022-12-29T04:41:16;6.85;;;1.98;;
60038;SDS011;45916;52.734;6.544;2022-12-29T04:43:42;6.20;;;1.70;;
60038;SDS011;45916;52.734;6.544;2022-12-29T04:46:07;5.50;;;2.13;;
60038;SDS011;45916;52.734;6.544;2022-12-29T04:48:33;5.95;;;1.80;;
60038;SDS011;45916;52.734;6.544;2022-12-29T04:50:59;7.32;;;2.22;;
60038;SDS011;45916;52.734;6.544;2022-12-29T04:53:24;6.50;;;2.40;;
60038;SDS011;45916;52.734;6.544;2022-12-29T04:55:50;6.20;;;2.65;;
60038;SDS011;45916;52.734;6.544;2022-12-29T04:58:17;5.60;;;2.13;;
60038;SDS011;45916;52.734;6.544;2022-12-29T05:00:46;5.25;;;1.83;;
60038;SDS011;45916;52.734;6.544;2022-12-29T05:03:12;6.03;;;1.83;;
60038;SDS011;45916;52.734;6.544;2022-12-29T05:05:37;4.60;;;1.98;;
60038;SDS011;45916;52.734;6.544;2022-12-29T05:08:03;4.05;;;1.65;;
60038;SDS011;45916;52.734;6.544;2022-12-29T05:10:29;6.30;;;1.85;;
60038;SDS011;45916;52.734;6.544;2022-12-29T05:12:55;5.28;;;1.92;;
60038;SDS011;45916;52.734;6.544;2022-12-29T05:15:21;5.78;;;1.90;;
60038;SDS011;45916;52.734;6.544;2022-12-29T05:17:46;5.18;;;2.00;;
60038;SDS011;45916;52.734;6.544;2022-12-29T05:20:12;8.50;;;2.40;;
60038;SDS011;45916;52.734;6.544;2022-12-29T05:22:38;3.65;;;1.63;;
60038;SDS011;45916;52.734;6.544;2022-12-29T05:25:04;7.15;;;2.45;;
60038;SDS011;45916;52.734;6.544;2022-12-29T05:27:30;6.38;;;2.03;;
60038;SDS011;45916;52.734;6.544;2022-12-29T05:29:55;5.15;;;2.47;;
60038;SDS011;45916;52.734;6.544;2022-12-29T05:32:21;6.65;;;3.33;;
60038;SDS011;45916;52.734;6.544;2022-12-29T05:34:47;7.50;;;2.80;;
60038;SDS011;45916;52.734;6.544;2022-12-29T05:37:12;6.03;;;2.65;;
60038;SDS011;45916;52.734;6.544;2022-12-29T05:39:38;6.75;;;2.70;;
60038;SDS011;45916;52.734;6.544;2022-12-29T05:42:04;6.90;;;3.30;;
60038;SDS011;45916;52.734;6.544;2022-12-29T05:44:30;7.13;;;2.72;;
60038;SDS011;45916;52.734;6.544;2022-12-29T05:46:55;5.07;;;2.88;;
60038;SDS011;45916;52.734;6.544;2022-12-29T05:49:21;7.03;;;2.83;;
60038;SDS011;45916;52.734;6.544;2022-12-29T05:51:47;6.72;;;2.63;;
60038;SDS011;45916;52.734;6.544;2022-12-29T05:54:12;7.35;;;2.47;;
60038;SDS011;45916;52.734;6.544;2022-12-29T05:56:38;9.05;;;2.67;;
60038;SDS011;45916;52.734;6.544;2022-12-29T05:59:04;6.30;;;2.10;;
60038;SDS011;45916;52.734;6.544;2022-12-29T06:01:29;6.18;;;2.33;;
60038;SDS011;45916;52.734;6.544;2022-12-29T06:03:55;8.10;;;2.38;;
60038;SDS011;45916;52.734;6.544;2022-12-29T06:06:21;8.15;;;2.30;;
60038;SDS011;45916;52.734;6.544;2022-12-29T06:08:47;7.63;;;2.30;;
60038;SDS011;45916;52.734;6.544;2022-12-29T06:11:12;8.90;;;2.75;;
60038;SDS011;45916;52.734;6.544;2022-12-29T06:13:38;6.13;;;2.40;;
60038;SDS011;45916;52.734;6.544;2022-12-29T06:16:04;5.78;;;1.60;;
60038;SDS011;45916;52.734;6.544;2022-12-29T06:18:30;7.95;;;2.08;;
60038;SDS011;45916;52.734;6.544;2022-12-29T06:20:59;6.10;;;1.90;;
60038;SDS011;45916;52.734;6.544;2022-12-29T06:23:26;5.30;;;2.15;;
60038;SDS011;45916;52.734;6.544;2022-12-29T06:25:52;8.13;;;2.33;;
60038;SDS011;45916;52.734;6.544;2022-12-29T06:28:17;7.00;;;1.60;;
60038;SDS011;45916;52.734;6.544;2022-12-29T06:30:46;4.53;;;1.60;;
60038;SDS011;45916;52.734;6.544;2022-12-29T06:33:13;8.75;;;1.90;;
60038;SDS011;45916;52.734;6.544;2022-12-29T06:35:39;8.65;;;2.65;;
60038;SDS011;45916;52.734;6.544;2022-12-29T06:38:07;6.88;;;2.20;;
60038;SDS011;45916;52.734;6.544;2022-12-29T06:40:33;6.32;;;2.65;;
60038;SDS011;45916;52.734;6.544;2022-12-29T06:42:58;7.10;;;1.83;;
60038;SDS011;45916;52.734;6.544;2022-12-29T06:45:24;8.68;;;2.88;;
60038;SDS011;45916;52.734;6.544;2022-12-29T06:47:50;6.45;;;1.83;;
60038;SDS011;45916;52.734;6.544;2022-12-29T06:50:15;9.50;;;4.07;;
60038;SDS011;45916;52.734;6.544;2022-12-29T06:52:41;7.28;;;2.25;;
60038;SDS011;45916;52.734;6.544;2022-12-29T06:55:07;7.93;;;2.63;;
60038;SDS011;45916;52.734;6.544;2022-12-29T06:57:33;11.00;;;2.38;;
60038;SDS011;45916;52.734;6.544;2022-12-29T06:59:58;12.05;;;2.22;;
60038;SDS011;45916;52.734;6.544;2022-12-29T07:02:24;11.63;;;2.35;;
60038;SDS011;45916;52.734;6.544;2022-12-29T07:04:50;8.23;;;2.42;;
60038;SDS011;45916;52.734;6.544;2022-12-29T07:07:20;9.15;;;2.30;;
60038;SDS011;45916;52.734;6.544;2022-12-29T07:09:46;9.88;;;2.78;;
60038;SDS011;45916;52.734;6.544;2022-12-29T07:12:11;7.15;;;3.05;;
60038;SDS011;45916;52.734;6.544;2022-12-29T07:14:37;12.35;;;3.38;;
60038;SDS011;45916;52.734;6.544;2022-12-29T07:17:03;8.98;;;2.60;;
60038;SDS011;45916;52.734;6.544;2022-12-29T07:19:31;9.95;;;2.78;;
60038;SDS011;45916;52.734;6.544;2022-12-29T07:21:57;9.98;;;2.72;;
60038;SDS011;45916;52.734;6.544;2022-12-29T07:24:23;9.43;;;2.92;;
60038;SDS011;45916;52.734;6.544;2022-12-29T07:26:51;8.75;;;2.63;;
60038;SDS011;45916;52.734;6.544;2022-12-29T07:29:17;11.48;;;2.50;;
60038;SDS011;45916;52.734;6.544;2022-12-29T07:31:43;12.77;;;3.13;;
60038;SDS011;45916;52.734;6.544;2022-12-29T07:34:08;9.52;;;2.97;;
60038;SDS011;45916;52.734;6.544;2022-12-29T07:36:34;6.13;;;2.13;;
60038;SDS011;45916;52.734;6.544;2022-12-29T07:39:00;10.00;;;2.55;;
60038;SDS011;45916;52.734;6.544;2022-12-29T07:41:26;11.85;;;3.70;;
60038;SDS011;45916;52.734;6.544;2022-12-29T07:43:52;7.57;;;2.92;;
60038;SDS011;45916;52.734;6.544;2022-12-29T07:46:17;7.68;;;2.63;;
60038;SDS011;45916;52.734;6.544;2022-12-29T07:48:43;9.18;;;3.10;;
60038;SDS011;45916;52.734;6.544;2022-12-29T07:51:09;9.60;;;3.10;;
60038;SDS011;45916;52.734;6.544;2022-12-29T07:53:34;10.25;;;2.75;;
60038;SDS011;45916;52.734;6.544;2022-12-29T07:56:00;11.00;;;2.35;;
60038;SDS011;45916;52.734;6.544;2022-12-29T07:58:26;8.60;;;2.40;;
60038;SDS011;45916;52.734;6.544;2022-12-29T08:00:55;8.55;;;2.70;;
60038;SDS011;45916;52.734;6.544;2022-12-29T08:03:21;10.10;;;3.63;;
60038;SDS011;45916;52.734;6.544;2022-12-29T08:05:47;9.10;;;2.63;;
60038;SDS011;45916;52.734;6.544;2022-12-29T08:08:14;10.77;;;3.15;;
60038;SDS011;45916;52.734;6.544;2022-12-29T08:10:39;10.25;;;2.70;;
60038;SDS011;45916;52.734;6.544;2022-12-29T08:13:05;13.02;;;3.20;;
60038;SDS011;45916;52.734;6.544;2022-12-29T08:15:31;6.45;;;2.58;;
60038;SDS011;45916;52.734;6.544;2022-12-29T08:17:56;11.75;;;3.13;;
60038;SDS011;45916;52.734;6.544;2022-12-29T08:20:22;10.75;;;3.30;;
60038;SDS011;45916;52.734;6.544;2022-12-29T08:22:48;11.18;;;3.30;;
60038;SDS011;45916;52.734;6.544;2022-12-29T08:25:14;11.23;;;3.10;;
60038;SDS011;45916;52.734;6.544;2022-12-29T08:27:39;10.82;;;3.13;;
60038;SDS011;45916;52.734;6.544;2022-12-29T08:30:05;10.95;;;3.03;;
60038;SDS011;45916;52.734;6.544;2022-12-29T08:32:32;9.57;;;3.88;;
60038;SDS011;45916;52.734;6.544;2022-12-29T08:34:58;14.25;;;3.13;;
60038;SDS011;45916;52.734;6.544;2022-12-29T08:37:24;8.75;;;3.20;;
60038;SDS011;45916;52.734;6.544;2022-12-29T08:39:50;10.20;;;2.50;;
60038;SDS011;45916;52.734;6.544;2022-12-29T08:42:15;11.68;;;2.70;;
60038;SDS011;45916;52.734;6.544;2022-12-29T08:44:41;7.70;;;2.55;;
60038;SDS011;45916;52.734;6.544;2022-12-29T08:47:06;8.88;;;2.65;;
60038;SDS011;45916;52.734;6.544;2022-12-29T08:49:34;10.85;;;2.47;;
60038;SDS011;45916;52.734;6.544;2022-12-29T08:51:59;8.18;;;2.42;;
60038;SDS011;45916;52.734;6.544;2022-12-29T08:54:25;7.78;;;2.60;;
60038;SDS011;45916;52.734;6.544;2022-12-29T08:56:51;7.55;;;2.30;;
60038;SDS011;45916;52.734;6.544;2022-12-29T08:59:16;7.72;;;2.65;;
60038;SDS011;45916;52.734;6.544;2022-12-29T09:01:42;9.07;;;2.80;;
60038;SDS011;45916;52.734;6.544;2022-12-29T09:04:08;11.30;;;2.67;;
60038;SDS011;45916;52.734;6.544;2022-12-29T09:06:34;8.25;;;2.45;;
60038;SDS011;45916;52.734;6.544;2022-12-29T09:09:00;10.13;;;2.90;;
60038;SDS011;45916;52.734;6.544;2022-12-29T09:11:26;6.63;;;1.63;;
60038;SDS011;45916;52.734;6.544;2022-12-29T09:13:52;9.02;;;2.80;;
60038;SDS011;45916;52.734;6.544;2022-12-29T09:16:18;8.40;;;2.22;;
60038;SDS011;45916;52.734;6.544;2022-12-29T09:18:46;7.07;;;2.50;;
60038;SDS011;45916;52.734;6.544;2022-12-29T09:21:11;9.48;;;3.00;;
60038;SDS011;45916;52.734;6.544;2022-12-29T09:23:38;9.63;;;2.35;;
60038;SDS011;45916;52.734;6.544;2022-12-29T09:26:04;9.38;;;2.88;;
60038;SDS011;45916;52.734;6.544;2022-12-29T09:28:30;11.20;;;2.67;;
60038;SDS011;45916;52.734;6.544;2022-12-29T09:30:57;8.45;;;3.13;;
60038;SDS011;45916;52.734;6.544;2022-12-29T09:33:23;10.25;;;2.85;;
60038;SDS011;45916;52.734;6.544;2022-12-29T09:35:53;11.35;;;2.90;;
60038;SDS011;45916;52.734;6.544;2022-12-29T09:38:21;10.90;;;3.42;;
60038;SDS011;45916;52.734;6.544;2022-12-29T09:40:51;9.13;;;3.08;;
60038;SDS011;45916;52.734;6.544;2022-12-29T09:46:23;9.95;;;2.95;;
60038;SDS011;45916;52.734;6.544;2022-12-29T09:49:37;9.82;;;3.13;;
60038;SDS011;45916;52.734;6.544;2022-12-29T09:51:50;12.23;;;3.35;;
60038;SDS011;45916;52.734;6.544;2022-12-29T09:57:16;12.80;;;2.80;;
60038;SDS011;45916;52.734;6.544;2022-12-29T10:00:11;12.10;;;3.38;;
60038;SDS011;45916;52.734;6.544;2022-12-29T10:02:46;8.70;;;2.92;;
60038;SDS011;45916;52.734;6.544;2022-12-29T10:08:10;9.43;;;2.80;;
60038;SDS011;45916;52.734;6.544;2022-12-29T10:16:24;7.28;;;2.50;;
60038;SDS011;45916;52.734;6.544;2022-12-29T10:21:55;10.50;;;2.88;;
60038;SDS011;45916;52.734;6.544;2022-12-29T10:24:34;9.55;;;2.72;;
60038;SDS011;45916;52.734;6.544;2022-12-29T10:27:05;8.20;;;3.05;;
60038;SDS011;45916;52.734;6.544;2022-12-29T10:29:40;8.68;;;2.90;;
60038;SDS011;45916;52.734;6.544;2022-12-29T10:34:58;9.40;;;3.28;;
60038;SDS011;45916;52.734;6.544;2022-12-29T10:40:27;7.38;;;2.92;;
60038;SDS011;45916;52.734;6.544;2022-12-29T10:43:03;9.40;;;3.20;;
60038;SDS011;45916;52.734;6.544;2022-12-29T10:48:09;7.75;;;2.45;;
60038;SDS011;45916;52.734;6.544;2022-12-29T10:50:41;7.45;;;2.80;;
60038;SDS011;45916;52.734;6.544;2022-12-29T10:53:07;7.28;;;2.33;;
60038;SDS011;45916;52.734;6.544;2022-12-29T10:55:40;8.07;;;3.15;;
60038;SDS011;45916;52.734;6.544;2022-12-29T10:58:07;9.13;;;3.08;;
60038;SDS011;45916;52.734;6.544;2022-12-29T11:00:37;10.45;;;2.42;;
60038;SDS011;45916;52.734;6.544;2022-12-29T11:06:21;9.00;;;2.67;;
60038;SDS011;45916;52.734;6.544;2022-12-29T11:08:53;9.88;;;3.38;;
60038;SDS011;45916;52.734;6.544;2022-12-29T11:11:32;10.45;;;2.92;;
60038;SDS011;45916;52.734;6.544;2022-12-29T11:16:39;8.32;;;2.58;;
60038;SDS011;45916;52.734;6.544;2022-12-29T11:19:19;8.98;;;3.10;;
60038;SDS011;45916;52.734;6.544;2022-12-29T11:21:46;9.20;;;3.08;;
60038;SDS011;45916;52.734;6.544;2022-12-29T11:24:25;9.10;;;2.97;;
60038;SDS011;45916;52.734;6.544;2022-12-29T11:26:53;8.48;;;3.53;;
60038;SDS011;45916;52.734;6.544;2022-12-29T11:29:23;8.25;;;3.08;;
60038;SDS011;45916;52.734;6.544;2022-12-29T11:32:10;9.07;;;3.13;;
60038;SDS011;45916;52.734;6.544;2022-12-29T11:34:57;8.00;;;3.03;;
60038;SDS011;45916;52.734;6.544;2022-12-29T11:37:27;8.70;;;3.13;;
60038;SDS011;45916;52.734;6.544;2022-12-29T11:40:05;9.40;;;2.80;;
60038;SDS011;45916;52.734;6.544;2022-12-29T11:42:41;10.02;;;3.20;;
60038;SDS011;45916;52.734;6.544;2022-12-29T11:47:47;10.35;;;3.65;;
60038;SDS011;45916;52.734;6.544;2022-12-29T11:50:18;13.40;;;4.18;;
60038;SDS011;45916;52.734;6.544;2022-12-29T11:53:00;7.20;;;3.20;;
60038;SDS011;45916;52.734;6.544;2022-12-29T11:55:29;7.78;;;2.88;;
60038;SDS011;45916;52.734;6.544;2022-12-29T11:57:57;10.52;;;3.55;;
60038;SDS011;45916;52.734;6.544;2022-12-29T12:00:27;13.60;;;3.83;;
60038;SDS011;45916;52.734;6.544;2022-12-29T12:02:59;12.75;;;3.63;;
60038;SDS011;45916;52.734;6.544;2022-12-29T12:05:54;9.65;;;3.45;;
60038;SDS011;45916;52.734;6.544;2022-12-29T12:11:11;9.27;;;3.40;;
60038;SDS011;45916;52.734;6.544;2022-12-29T12:16:37;10.90;;;3.72;;
60038;SDS011;45916;52.734;6.544;2022-12-29T12:21:54;12.25;;;3.45;;
60038;SDS011;45916;52.734;6.544;2022-12-29T12:32:17;6.25;;;2.13;;
60038;SDS011;45916;52.734;6.544;2022-12-29T12:35:31;7.55;;;2.05;;
60038;SDS011;45916;52.734;6.544;2022-12-29T12:41:07;9.32;;;3.15;;
60038;SDS011;45916;52.734;6.544;2022-12-29T12:44:10;9.73;;;3.58;;
60038;SDS011;45916;52.734;6.544;2022-12-29T12:55:15;14.13;;;4.70;;
60038;SDS011;45916;52.734;6.544;2022-12-29T13:00:22;13.23;;;4.68;;
60038;SDS011;45916;52.734;6.544;2022-12-29T13:10:42;17.60;;;4.82;;
60038;SDS011;45916;52.734;6.544;2022-12-29T13:13:24;12.85;;;4.68;;
60038;SDS011;45916;52.734;6.544;2022-12-29T13:26:39;14.48;;;3.97;;
60038;SDS011;45916;52.734;6.544;2022-12-29T13:34:43;12.75;;;3.60;;
60038;SDS011;45916;52.734;6.544;2022-12-29T13:37:22;11.27;;;3.00;;
60038;SDS011;45916;52.734;6.544;2022-12-29T13:39:54;12.35;;;4.10;;
60038;SDS011;45916;52.734;6.544;2022-12-29T13:42:22;11.35;;;3.80;;
60038;SDS011;45916;52.734;6.544;2022-12-29T13:44:55;16.83;;;4.40;;
60038;SDS011;45916;52.734;6.544;2022-12-29T13:47:33;15.27;;;4.15;;
60038;SDS011;45916;52.734;6.544;2022-12-29T13:50:04;12.85;;;4.53;;
60038;SDS011;45916;52.734;6.544;2022-12-29T13:52:39;18.00;;;4.90;;
60038;SDS011;45916;52.734;6.544;2022-12-29T14:01:10;11.80;;;4.22;;
60038;SDS011;45916;52.734;6.544;2022-12-29T14:03:58;16.10;;;5.80;;
60038;SDS011;45916;52.734;6.544;2022-12-29T14:08:54;12.68;;;4.70;;
60038;SDS011;45916;52.734;6.544;2022-12-29T14:14:39;12.73;;;4.22;;
60038;SDS011;45916;52.734;6.544;2022-12-29T14:17:10;18.75;;;5.05;;
60038;SDS011;45916;52.734;6.544;2022-12-29T14:19:39;9.32;;;4.90;;
60038;SDS011;45916;52.734;6.544;2022-12-29T14:22:07;17.17;;;4.57;;
60038;SDS011;45916;52.734;6.544;2022-12-29T14:27:00;13.05;;;4.20;;
60038;SDS011;45916;52.734;6.544;2022-12-29T14:29:50;11.52;;;4.22;;
60038;SDS011;45916;52.734;6.544;2022-12-29T14:34:58;14.77;;;4.20;;
60038;SDS011;45916;52.734;6.544;2022-12-29T14:40:31;10.48;;;3.70;;
60038;SDS011;45916;52.734;6.544;2022-12-29T14:42:51;12.30;;;4.30;;
60038;SDS011;45916;52.734;6.544;2022-12-29T14:47:51;12.90;;;3.60;;
60038;SDS011;45916;52.734;6.544;2022-12-29T14:50:39;11.60;;;4.13;;
60038;SDS011;45916;52.734;6.544;2022-12-29T14:56:11;14.77;;;4.03;;
60038;SDS011;45916;52.734;6.544;2022-12-29T14:58:43;13.30;;;3.42;;
60038;SDS011;45916;52.734;6.544;2022-12-29T15:03:57;11.52;;;4.18;;
60038;SDS011;45916;52.734;6.544;2022-12-29T15:06:29;14.05;;;4.10;;
60038;SDS011;45916;52.734;6.544;2022-12-29T15:09:06;13.95;;;4.25;;
60038;SDS011;45916;52.734;6.544;2022-12-29T15:11:53;15.27;;;3.95;;
60038;SDS011;45916;52.734;6.544;2022-12-29T15:16:56;14.27;;;5.07;;
60038;SDS011;45916;52.734;6.544;2022-12-29T15:19:22;14.10;;;3.75;;
60038;SDS011;45916;52.734;6.544;2022-12-29T15:21:49;12.95;;;3.97;;
60038;SDS011;45916;52.734;6.544;2022-12-29T15:24:15;11.10;;;4.40;;
60038;SDS011;45916;52.734;6.544;2022-12-29T15:26:42;12.77;;;3.95;;
60038;SDS011;45916;52.734;6.544;2022-12-29T15:29:44;16.33;;;3.58;;
60038;SDS011;45916;52.734;6.544;2022-12-29T15:34:48;17.83;;;4.30;;
60038;SDS011;45916;52.734;6.544;2022-12-29T15:37:23;13.02;;;4.13;;
60038;SDS011;45916;52.734;6.544;2022-12-29T15:39:50;18.15;;;4.93;;
60038;SDS011;45916;52.734;6.544;2022-12-29T15:45:04;13.90;;;5.00;;
60038;SDS011;45916;52.734;6.544;2022-12-29T15:50:22;12.60;;;5.10;;
60038;SDS011;45916;52.734;6.544;2022-12-29T15:52:55;9.20;;;3.75;;
60038;SDS011;45916;52.734;6.544;2022-12-29T15:55:29;11.55;;;4.20;;
60038;SDS011;45916;52.734;6.544;2022-12-29T15:58:04;14.02;;;5.85;;
60038;SDS011;45916;52.734;6.544;2022-12-29T16:03:11;10.27;;;4.57;;
60038;SDS011;45916;52.734;6.544;2022-12-29T16:05:39;9.93;;;3.73;;
60038;SDS011;45916;52.734;6.544;2022-12-29T16:08:22;10.63;;;3.92;;
60038;SDS011;45916;52.734;6.544;2022-12-29T16:10:54;9.10;;;3.50;;
60038;SDS011;45916;52.734;6.544;2022-12-29T16:13:31;9.15;;;3.55;;
60038;SDS011;45916;52.734;6.544;2022-12-29T16:16:18;8.88;;;3.67;;
60038;SDS011;45916;52.734;6.544;2022-12-29T16:18:53;8.02;;;3.70;;
60038;SDS011;45916;52.734;6.544;2022-12-29T16:21:21;10.70;;;4.22;;
60038;SDS011;45916;52.734;6.544;2022-12-29T16:23:52;9.45;;;3.80;;
60038;SDS011;45916;52.734;6.544;2022-12-29T16:26:20;8.50;;;3.30;;
60038;SDS011;45916;52.734;6.544;2022-12-29T16:28:50;10.27;;;4.00;;
60038;SDS011;45916;52.734;6.544;2022-12-29T16:31:25;10.50;;;4.20;;
60038;SDS011;45916;52.734;6.544;2022-12-29T16:33:58;15.73;;;9.07;;
60038;SDS011;45916;52.734;6.544;2022-12-29T16:36:58;11.48;;;4.18;;
60038;SDS011;45916;52.734;6.544;2022-12-29T16:39:37;10.93;;;4.47;;
60038;SDS011;45916;52.734;6.544;2022-12-29T16:50:30;9.15;;;3.45;;
60038;SDS011;45916;52.734;6.544;2022-12-29T16:52:56;8.82;;;2.90;;
60038;SDS011;45916;52.734;6.544;2022-12-29T16:55:22;7.78;;;3.13;;
60038;SDS011;45916;52.734;6.544;2022-12-29T16:57:49;6.70;;;2.90;;
60038;SDS011;45916;52.734;6.544;2022-12-29T17:00:22;7.82;;;3.83;;
60038;SDS011;45916;52.734;6.544;2022-12-29T17:02:51;13.00;;;4.57;;
60038;SDS011;45916;52.734;6.544;2022-12-29T17:05:19;10.02;;;4.97;;
60038;SDS011;45916;52.734;6.544;2022-12-29T17:07:45;9.65;;;4.13;;
60038;SDS011;45916;52.734;6.544;2022-12-29T17:10:12;9.50;;;4.07;;
60038;SDS011;45916;52.734;6.544;2022-12-29T17:15:10;10.15;;;4.85;;
60038;SDS011;45916;52.734;6.544;2022-12-29T17:17:49;14.38;;;5.40;;
60038;SDS011;45916;52.734;6.544;2022-12-29T17:20:22;9.50;;;4.93;;
60038;SDS011;45916;52.734;6.544;2022-12-29T17:22:57;12.07;;;6.68;;
60038;SDS011;45916;52.734;6.544;2022-12-29T17:25:34;13.10;;;6.43;;
60038;SDS011;45916;52.734;6.544;2022-12-29T17:31:03;13.18;;;6.55;;
60038;SDS011;45916;52.734;6.544;2022-12-29T17:33:35;13.98;;;7.57;;
60038;SDS011;45916;52.734;6.544;2022-12-29T17:36:04;11.25;;;5.65;;
60038;SDS011;45916;52.734;6.544;2022-12-29T17:38:30;10.77;;;5.57;;
60038;SDS011;45916;52.734;6.544;2022-12-29T17:40:59;11.15;;;5.03;;
60038;SDS011;45916;52.734;6.544;2022-12-29T17:43:25;12.75;;;6.93;;
60038;SDS011;45916;52.734;6.544;2022-12-29T17:45:52;12.68;;;7.22;;
60038;SDS011;45916;52.734;6.544;2022-12-29T17:48:19;16.17;;;6.88;;
60038;SDS011;45916;52.734;6.544;2022-12-29T17:50:49;12.65;;;5.50;;
60038;SDS011;45916;52.734;6.544;2022-12-29T17:53:23;9.60;;;4.53;;
60038;SDS011;45916;52.734;6.544;2022-12-29T17:55:51;10.15;;;5.55;;
60038;SDS011;45916;52.734;6.544;2022-12-29T17:58:18;8.23;;;3.90;;
60038;SDS011;45916;52.734;6.544;2022-12-29T18:00:47;8.77;;;3.58;;
60038;SDS011;45916;52.734;6.544;2022-12-29T18:03:18;7.35;;;3.75;;